Time;durP1;ratioP1;P1;durP2;ratioP2;P2;SDS_P1;SDS_P2;PMS_P1;PMS_P2;Temp;Humidity;BMP_temperature;BMP_pressure;BME280_temperature;BME280_humidity;BME280_pressure;Samples;Min_cycle;Max_cycle;Signal;HPM_P1;HPM_P2
2024/03/21 00:02:02;;;;;;;13.38;7.05;;;;;;;6.81;53.06;99775.13;4887195;29;20032;-91
2024/03/21 00:04:28;;;;;;;16.23;8.00;;;;;;;6.89;52.81;99790.00;4869571;29;20496;-91
2024/03/21 00:06:53;;;;;;;18.75;7.65;;;;;;;6.81;52.86;99769.75;4885477;29;20029;-89
2024/03/21 00:09:20;;;;;;;15.18;7.60;;;;;;;7.00;51.93;99783.81;4886222;29;20510;-91
2024/03/21 00:11:46;;;;;;;16.20;8.30;;;;;;;7.06;52.63;99795.47;4886205;29;20032;-91
2024/03/21 00:14:11;;;;;;;16.38;7.95;;;;;;;7.09;52.66;99781.59;4854832;29;20096;-91
2024/03/21 00:16:37;;;;;;;15.95;8.15;;;;;;;7.08;52.57;99783.47;4880962;29;20025;-91
2024/03/21 00:19:03;;;;;;;16.92;8.50;;;;;;;7.09;52.16;99770.88;4862087;29;20032;-90
2024/03/21 00:21:31;;;;;;;17.83;8.63;;;;;;;7.17;51.77;99788.47;4870500;29;20044;-90
2024/03/21 00:23:57;;;;;;;18.27;9.43;;;;;;;7.13;51.70;99773.91;4869860;29;20056;-90
2024/03/21 00:26:22;;;;;;;16.40;9.20;;;;;;;7.28;51.55;99791.13;4900218;29;20028;-91
2024/03/21 00:28:49;;;;;;;20.55;9.15;;;;;;;7.21;51.59;99768.19;4869878;29;20021;-90
2024/03/21 00:31:16;;;;;;;15.48;8.20;;;;;;;7.18;51.34;99748.06;4870398;29;20115;-90
2024/03/21 00:33:47;;;;;;;20.05;9.07;;;;;;;7.28;51.73;99775.06;4884230;29;20047;-90
2024/03/21 00:36:16;;;;;;;14.80;8.68;;;;;;;7.39;51.33;99776.06;4902028;29;20039;-90
2024/03/21 00:38:42;;;;;;;14.07;8.45;;;;;;;7.41;51.21;99765.13;4899755;29;20477;-91
2024/03/21 00:41:08;;;;;;;13.15;7.30;;;;;;;7.50;50.85;99777.06;4884843;29;20025;-90
2024/03/21 00:43:34;;;;;;;14.60;7.60;;;;;;;7.44;50.29;99757.41;4869482;29;20061;-91
2024/03/21 00:46:00;;;;;;;11.73;6.75;;;;;;;7.47;51.00;99762.31;4841009;29;20107;-90
2024/03/21 00:48:25;;;;;;;12.98;7.47;;;;;;;7.53;50.79;99767.75;4852718;29;20478;-91
2024/03/21 00:50:51;;;;;;;14.43;7.88;;;;;;;7.53;50.48;99755.16;4866718;29;20025;-91
2024/03/21 00:53:16;;;;;;;14.30;8.20;;;;;;;7.63;50.30;99767.94;4849703;29;20045;-91
2024/03/21 00:55:42;;;;;;;12.27;6.65;;;;;;;7.54;50.31;99743.41;4850990;29;20097;-90
2024/03/21 00:58:08;;;;;;;15.90;7.57;;;;;;;7.53;50.17;99740.94;4850395;29;20024;-90
2024/03/21 01:00:35;;;;;;;10.70;6.47;;;;;;;7.65;51.09;99757.78;4852575;29;20484;-90
2024/03/21 01:03:02;;;;;;;15.80;6.60;;;;;;;7.46;50.74;99744.59;4854688;29;20464;-90
2024/03/21 01:05:28;;;;;;;15.65;6.50;;;;;;;7.39;50.88;99740.44;4868253;29;20025;-91
2024/03/21 01:07:53;;;;;;;13.15;6.47;;;;;;;7.35;51.44;99733.94;4869203;29;20044;-91
2024/03/21 01:10:19;;;;;;;15.00;6.85;;;;;;;7.34;51.70;99737.66;4851752;29;20021;-91
2024/03/21 01:12:44;;;;;;;18.73;8.63;;;;;;;7.25;52.28;99739.88;4868860;29;20591;-91
2024/03/21 01:15:10;;;;;;;19.30;9.98;;;;;;;7.35;52.32;99744.66;4877663;29;20020;-91
2024/03/21 01:17:36;;;;;;;22.73;11.30;;;;;;;7.43;52.91;99753.09;4872918;29;20029;-90
2024/03/21 01:20:03;;;;;;;21.48;11.95;;;;;;;7.21;53.23;99714.63;4851952;29;20037;-90
2024/03/21 01:22:29;;;;;;;22.73;12.00;;;;;;;7.28;52.97;99723.31;4869560;29;20028;-90
2024/03/21 01:24:54;;;;;;;25.42;11.80;;;;;;;7.29;52.81;99720.41;4861599;29;20052;-90
2024/03/21 01:27:20;;;;;;;21.42;10.68;;;;;;;7.31;52.67;99725.53;4886452;29;20085;-90
2024/03/21 01:29:45;;;;;;;21.25;9.90;;;;;;;7.25;52.15;99729.19;4877872;29;20032;-92
2024/03/21 01:32:11;;;;;;;23.25;11.30;;;;;;;7.28;52.46;99734.03;4870845;29;20032;-91
2024/03/21 01:34:36;;;;;;;19.88;9.65;;;;;;;7.29;52.15;99733.81;4834691;29;20029;-92
2024/03/21 01:37:02;;;;;;;17.23;10.05;;;;;;;7.20;52.49;99721.03;4852468;29;20118;-91
2024/03/21 01:39:28;;;;;;;16.65;9.70;;;;;;;7.24;52.90;99728.38;4864364;29;20112;-91
2024/03/21 01:41:53;;;;;;;23.77;10.30;;;;;;;7.16;53.03;99731.41;4855285;29;20572;-92
2024/03/21 01:44:21;;;;;;;20.88;10.50;;;;;;;7.19;53.08;99727.44;4864672;29;20523;-91
2024/03/21 01:46:48;;;;;;;20.83;9.85;;;;;;;6.95;52.70;99706.09;4865947;29;20029;-91
2024/03/21 01:49:15;;;;;;;19.27;10.23;;;;;;;7.03;53.21;99699.53;4865390;29;20473;-90
2024/03/21 01:51:44;;;;;;;17.27;10.10;;;;;;;7.12;53.23;99716.88;4865957;29;20408;-90
2024/03/21 01:54:10;;;;;;;16.50;9.50;;;;;;;7.16;52.66;99717.19;4865560;29;20068;-90
2024/03/21 01:56:37;;;;;;;15.13;7.43;;;;;;;7.08;52.97;99727.25;4865172;29;20476;-90
2024/03/21 01:59:06;;;;;;;13.68;6.65;;;;;;;6.97;53.27;99711.19;4849711;29;20113;-90
2024/03/21 02:01:32;;;;;;;25.17;11.07;;;;;;;6.92;53.69;99719.94;4851575;29;20049;-91
2024/03/21 02:04:00;;;;;;;22.95;11.48;;;;;;;6.85;54.40;99711.22;4853237;29;20044;-90
2024/03/21 02:06:27;;;;;;;32.03;14.00;;;;;;;6.84;54.15;99705.03;4861447;29;20423;-90
2024/03/21 02:08:53;;;;;;;24.67;12.80;;;;;;;6.86;54.51;99712.84;4866630;29;20493;-90
2024/03/21 02:11:22;;;;;;;21.65;12.25;;;;;;;6.83;54.24;99694.59;4856021;29;20081;-90
2024/03/21 02:13:51;;;;;;;23.90;12.48;;;;;;;6.81;54.46;99697.50;4877018;29;20028;-91
2024/03/21 02:16:17;;;;;;;26.90;12.00;;;;;;;6.77;54.68;99712.41;4872038;29;20407;-91
2024/03/21 02:18:42;;;;;;;24.33;12.10;;;;;;;6.65;54.79;99696.34;4886695;29;20028;-91
2024/03/21 02:22:35;;;;;;;21.38;11.93;;;;;;;6.68;54.77;99706.59;4871541;29;20063;-90
2024/03/21 02:23:54;;;;;;;27.08;12.35;;;;;;;6.54;54.95;99686.50;4876278;29;20033;-90
2024/03/21 02:26:19;;;;;;;22.23;11.70;;;;;;;6.70;54.95;99713.56;4871512;29;20031;-91
2024/03/21 02:28:46;;;;;;;22.13;11.10;;;;;;;6.60;54.56;99701.59;4855509;29;20024;-91
2024/03/21 02:31:12;;;;;;;17.58;10.63;;;;;;;6.57;54.79;99703.94;4855699;29;20016;-91
2024/03/21 02:33:38;;;;;;;21.92;10.95;;;;;;;6.53;54.81;99705.44;4887316;29;20032;-91
2024/03/21 02:36:04;;;;;;;24.20;13.15;;;;;;;6.47;55.13;99701.81;4887247;29;20049;-90
2024/03/21 02:38:29;;;;;;;22.23;9.90;;;;;;;6.63;55.28;99735.09;4870868;29;20031;-90
2024/03/21 02:40:55;;;;;;;8.95;5.65;;;;;;;6.63;53.49;99732.41;4871470;29;20033;-89
2024/03/21 02:43:20;;;;;;;14.55;8.93;;;;;;;6.44;54.53;99699.63;4870231;29;20036;-91
2024/03/21 02:45:46;;;;;;;12.70;5.90;;;;;;;6.56;53.71;99705.00;4855186;29;20123;-91
2024/03/21 02:48:12;;;;;;;12.38;5.63;;;;;;;6.56;53.60;99705.78;4856029;29;20077;-91
2024/03/21 02:50:38;;;;;;;11.93;6.75;;;;;;;6.65;53.72;99714.28;4870961;29;20028;-90
2024/03/21 02:53:04;;;;;;;7.95;4.95;;;;;;;6.74;53.20;99739.63;4856286;29;20429;-90
2024/03/21 02:55:30;;;;;;;9.20;4.93;;;;;;;6.76;52.89;99732.16;4887129;29;20039;-90
2024/03/21 02:57:57;;;;;;;7.03;4.53;;;;;;;6.90;52.72;99746.13;4871208;29;20033;-91
2024/03/21 03:00:22;;;;;;;8.07;5.43;;;;;;;6.67;52.74;99714.84;4870350;29;20062;-91
2024/03/21 03:02:51;;;;;;;8.38;5.22;;;;;;;6.80;52.58;99730.66;4870178;29;20037;-91
2024/03/21 03:05:17;;;;;;;7.75;5.25;;;;;;;6.79;52.80;99722.88;4856867;29;20056;-91
2024/03/21 03:07:43;;;;;;;9.32;5.35;;;;;;;6.86;52.50;99718.19;4855996;29;20028;-90
2024/03/21 03:10:09;;;;;;;11.82;4.85;;;;;;;6.98;52.74;99723.53;4855154;29;20032;-90
2024/03/21 03:12:35;;;;;;;9.18;5.13;;;;;;;6.95;52.54;99722.16;4871392;29;20029;-91
2024/03/21 03:15:04;;;;;;;9.50;5.13;;;;;;;6.76;52.73;99712.63;4855003;29;20104;-90
2024/03/21 03:17:29;;;;;;;8.63;5.07;;;;;;;6.74;52.85;99710.19;4855337;29;20451;-90
2024/03/21 03:19:55;;;;;;;8.85;5.10;;;;;;;6.90;52.75;99739.97;4854518;29;20021;-90
2024/03/21 03:22:20;;;;;;;8.10;4.95;;;;;;;6.73;52.83;99710.44;4869888;29;20480;-91
2024/03/21 03:24:46;;;;;;;9.80;5.25;;;;;;;6.77;52.38;99709.72;4885872;29;20571;-90
2024/03/21 03:27:11;;;;;;;13.10;5.10;;;;;;;6.70;53.02;99706.34;4855241;29;20036;-91
2024/03/21 03:29:37;;;;;;;10.63;4.95;;;;;;;6.70;53.07;99718.91;4846980;29;20440;-91
2024/03/21 03:32:03;;;;;;;7.70;5.03;;;;;;;6.49;54.01;99710.44;4826560;29;20044;-91
2024/03/21 03:37:15;;;;;;;8.23;4.57;;;;;;;6.66;53.53;99719.41;4890508;29;20476;-91
2024/03/21 03:39:41;;;;;;;7.90;4.88;;;;;;;6.55;53.67;99695.31;4885834;29;20056;-91
2024/03/21 03:42:07;;;;;;;8.45;5.32;;;;;;;6.64;53.58;99712.63;4852341;29;20412;-91
2024/03/21 03:44:32;;;;;;;8.38;5.43;;;;;;;6.55;53.99;99701.47;4850929;29;20036;-91
2024/03/21 03:46:58;;;;;;;14.73;5.70;;;;;;;6.64;53.52;99715.31;4851589;29;20024;-91
2024/03/21 03:49:24;;;;;;;7.93;5.10;;;;;;;6.55;53.90;99696.13;4884005;29;20119;-91
2024/03/21 03:51:49;;;;;;;8.70;5.05;;;;;;;6.46;54.01;99705.56;4851734;29;20465;-91
2024/03/21 03:54:15;;;;;;;9.32;4.88;;;;;;;6.55;53.69;99716.72;4836970;29;20444;-91
2024/03/21 03:56:40;;;;;;;8.93;5.97;;;;;;;6.61;53.60;99719.28;4818400;29;20412;-91
2024/03/21 03:59:06;;;;;;;9.07;5.30;;;;;;;6.59;53.30;99715.22;4817855;29;20041;-91
2024/03/21 04:01:31;;;;;;;10.55;5.45;;;;;;;6.60;53.19;99716.81;4833829;29;20025;-91
2024/03/21 04:03:57;;;;;;;13.00;5.30;;;;;;;6.66;53.06;99723.91;4833018;29;20025;-91
2024/03/21 04:06:22;;;;;;;7.03;4.95;;;;;;;6.59;52.92;99710.66;4818464;29;20036;-91
2024/03/21 04:08:48;;;;;;;7.13;5.10;;;;;;;6.67;52.79;99721.00;4832386;29;20041;-91
2024/03/21 04:11:14;;;;;;;9.30;5.20;;;;;;;6.63;52.64;99722.53;4863984;29;20025;-91
2024/03/21 04:13:40;;;;;;;6.88;4.53;;;;;;;6.66;52.40;99711.38;4815956;29;20085;-90
2024/03/21 04:16:12;;;;;;;7.97;4.80;;;;;;;6.77;52.51;99720.44;4854434;29;20037;-90
2024/03/21 04:18:38;;;;;;;7.50;5.07;;;;;;;6.63;52.71;99703.00;4848821;29;20174;-91
2024/03/21 04:21:03;;;;;;;8.98;4.60;;;;;;;6.91;52.21;99741.56;4816897;29;20061;-90
2024/03/21 04:23:29;;;;;;;7.55;5.38;;;;;;;6.76;52.92;99740.19;4848044;29;20120;-90
2024/03/21 04:25:54;;;;;;;9.20;5.05;;;;;;;6.77;52.56;99727.66;4833500;29;20025;-90
2024/03/21 04:28:21;;;;;;;7.75;5.07;;;;;;;6.79;52.54;99745.09;4847150;29;20052;-90
2024/03/21 04:30:46;;;;;;;10.38;5.05;;;;;;;6.79;52.13;99722.88;4849089;29;20025;-91
2024/03/21 04:33:12;;;;;;;11.02;5.60;;;;;;;6.78;52.02;99727.41;4849126;29;20052;-93
2024/03/21 04:35:39;;;;;;;12.07;5.53;;;;;;;6.75;52.26;99727.06;4836990;29;20033;-91
2024/03/21 04:38:06;;;;;;;8.85;5.18;;;;;;;6.91;52.46;99755.81;4866180;29;20058;-91
2024/03/21 04:40:33;;;;;;;10.15;4.70;;;;;;;6.80;52.82;99733.31;4826959;29;20033;-91
2024/03/21 04:42:58;;;;;;;19.60;5.88;;;;;;;6.86;52.77;99734.25;4833248;29;20029;-89
2024/03/21 04:45:24;;;;;;;15.13;7.38;;;;;;;6.79;52.84;99734.38;4815027;29;20118;-90
2024/03/21 04:47:50;;;;;;;20.00;8.93;;;;;;;6.97;53.49;99744.16;4798762;29;20038;-90
2024/03/21 04:50:15;;;;;;;21.70;8.63;;;;;;;6.96;52.74;99736.34;4830651;29;20163;-90
2024/03/21 04:52:41;;;;;;;13.90;6.47;;;;;;;7.00;53.25;99741.00;4832009;29;20054;-90
2024/03/21 04:55:07;;;;;;;17.23;7.10;;;;;;;6.88;53.28;99735.66;4833961;29;20090;-90
2024/03/21 04:57:32;;;;;;;13.20;5.78;;;;;;;6.90;52.50;99726.59;4840765;29;20043;-92
2024/03/21 04:59:58;;;;;;;10.02;5.70;;;;;;;7.05;52.04;99743.75;4835358;29;20048;-91
2024/03/21 05:02:23;;;;;;;11.73;5.95;;;;;;;7.21;51.99;99749.44;4816372;29;20064;-91
2024/03/21 05:04:49;;;;;;;14.00;5.78;;;;;;;7.06;51.39;99729.34;4838489;29;20025;-91
2024/03/21 05:07:16;;;;;;;10.70;5.50;;;;;;;7.22;51.27;99745.69;4821091;29;20672;-90
2024/03/21 05:09:41;;;;;;;13.85;6.22;;;;;;;7.34;51.07;99751.84;4824230;29;20476;-90
2024/03/21 05:12:07;;;;;;;8.90;5.80;;;;;;;7.43;51.51;99752.31;4837623;29;20026;-90
2024/03/21 05:14:35;;;;;;;9.88;5.45;;;;;;;7.35;51.06;99734.72;4854812;29;20029;-90
2024/03/21 05:17:24;;;;;;;11.27;5.75;;;;;;;7.65;50.71;99766.63;4843911;29;20061;-91
2024/03/21 05:19:49;;;;;;;12.65;5.78;;;;;;;7.64;50.59;99762.34;4815004;29;20048;-93
2024/03/21 05:22:18;;;;;;;8.52;5.43;;;;;;;7.68;50.77;99752.78;4829408;29;20489;-92
2024/03/21 05:24:43;;;;;;;9.95;5.15;;;;;;;7.73;50.56;99745.88;4814491;29;20054;-92
2024/03/21 05:27:11;;;;;;;16.38;5.80;;;;;;;7.72;50.26;99739.72;4829276;29;20053;-92
2024/03/21 05:29:36;;;;;;;14.13;7.82;;;;;;;7.59;50.63;99721.22;4828187;29;20060;-92
2024/03/21 05:32:02;;;;;;;10.68;5.85;;;;;;;7.73;50.79;99740.53;4801780;29;20422;-92
2024/03/21 05:34:29;;;;;;;17.80;6.10;;;;;;;7.75;50.22;99725.81;4812627;29;20034;-93
2024/03/21 05:36:58;;;;;;;12.73;5.32;;;;;;;7.85;50.16;99736.72;4813670;29;20107;-93
2024/03/21 05:39:23;;;;;;;13.05;5.97;;;;;;;7.85;49.99;99728.69;4800747;29;20043;-92
2024/03/21 05:41:49;;;;;;;10.50;5.43;;;;;;;7.99;50.04;99739.91;4798535;29;20057;-93
2024/03/21 05:44:14;;;;;;;24.08;5.85;;;;;;;8.02;49.87;99743.97;4813840;29;20045;-92
2024/03/21 05:46:40;;;;;;;8.93;5.38;;;;;;;8.04;49.32;99726.59;4813827;29;20042;-91
2024/03/21 05:49:06;;;;;;;8.57;5.22;;;;;;;8.05;49.61;99725.53;4837193;29;20049;-92
2024/03/21 05:51:36;;;;;;;12.57;6.35;;;;;;;8.38;48.94;99748.03;4833365;29;20033;-92
2024/03/21 05:54:06;;;;;;;10.55;5.40;;;;;;;8.35;48.81;99721.72;4837023;29;20045;-93
2024/03/21 05:56:38;;;;;;;19.20;5.68;;;;;;;8.39;48.71;99727.41;4848898;29;20033;-92
2024/03/21 05:59:04;;;;;;;13.80;5.90;;;;;;;8.67;48.25;99743.44;4851309;29;20052;-92
2024/03/21 06:01:32;;;;;;;12.05;6.50;;;;;;;8.75;47.79;99734.13;4853010;29;20041;-92
2024/03/21 06:03:58;;;;;;;9.88;6.60;;;;;;;8.87;48.27;99736.72;4840527;29;20037;-90
2024/03/21 06:06:31;;;;;;;14.88;5.60;;;;;;;8.96;47.50;99734.41;4861283;29;20029;-91
2024/03/21 06:09:21;;;;;;;15.50;5.60;;;;;;;9.09;47.32;99732.16;4836764;29;20037;-92
2024/03/21 06:11:47;;;;;;;8.48;5.30;;;;;;;9.13;47.16;99710.16;4840275;29;20044;-91
2024/03/21 06:14:12;;;;;;;12.82;5.68;;;;;;;9.28;46.97;99719.22;4823214;29;20061;-92
2024/03/21 06:16:38;;;;;;;9.82;6.18;;;;;;;9.27;46.93;99714.91;4836844;29;20045;-91
2024/03/21 06:19:04;;;;;;;13.10;6.45;;;;;;;9.49;46.70;99727.53;4821603;29;20026;-91
2024/03/21 06:21:29;;;;;;;15.52;10.13;;;;;;;9.58;46.45;99715.25;4821030;29;20122;-92
2024/03/21 06:23:55;;;;;;;17.77;8.52;;;;;;;9.66;46.32;99713.97;4858636;29;20132;-94
2024/03/21 06:26:23;;;;;;;9.40;4.90;;;;;;;9.85;45.30;99715.22;4836978;29;20062;-92
2024/03/21 06:28:53;;;;;;;12.38;5.85;;;;;;;9.88;45.50;99706.66;4824815;29;20037;-92
2024/03/21 06:31:22;;;;;;;29.10;15.35;;;;;;;9.94;45.61;99704.00;4845620;29;20032;-93
2024/03/21 06:33:58;;;;;;;58.72;35.67;;;;;;;10.05;45.68;99705.72;4824540;29;20037;-94
2024/03/21 06:36:33;;;;;;;23.30;11.73;;;;;;;10.16;44.83;99690.47;4818288;29;20068;-94
2024/03/21 06:39:12;;;;;;;14.73;6.45;;;;;;;10.24;44.54;99698.06;4827967;29;20034;-91
2024/03/21 06:41:41;;;;;;;6.82;4.75;;;;;;;10.23;43.93;99705.34;4856084;29;20036;-91
2024/03/21 06:44:11;;;;;;;72.50;47.03;;;;;;;10.16;43.76;99691.28;4857440;29;20029;-90
2024/03/21 06:46:38;;;;;;;10.02;6.13;;;;;;;10.37;43.38;99700.34;4836319;29;20030;-92
2024/03/21 06:49:05;;;;;;;8.32;5.18;;;;;;;10.34;43.16;99692.78;4823153;29;20033;-93
2024/03/21 06:51:30;;;;;;;6.88;4.80;;;;;;;10.25;43.15;99691.59;4819900;29;20117;-91
2024/03/21 06:53:56;;;;;;;11.10;5.38;;;;;;;10.41;42.83;99697.94;4836766;29;20060;-91
2024/03/21 06:56:27;;;;;;;7.10;4.93;;;;;;;10.62;42.78;99728.50;4852470;29;20033;-92
2024/03/21 06:58:53;;;;;;;15.73;9.75;;;;;;;10.58;42.56;99712.03;4852011;29;20032;-92
2024/03/21 07:02:01;;;;;;;7.20;4.72;;;;;;;10.71;42.46;99735.84;4850133;29;20093;-93
2024/03/21 07:04:27;;;;;;;8.55;5.20;;;;;;;10.67;42.46;99723.97;4895082;29;20032;-90
2024/03/21 07:06:55;;;;;;;8.27;4.95;;;;;;;10.77;42.25;99714.31;4860235;29;20170;-91
2024/03/21 07:09:20;;;;;;;7.50;4.55;;;;;;;10.72;41.71;99701.63;4863304;29;20028;-92
2024/03/21 07:11:52;;;;;;;10.73;4.88;;;;;;;10.68;41.95;99709.41;4872365;29;20108;-93
2024/03/21 07:14:31;;;;;;;;;;;;;;;;;;;;;
2024/03/21 07:17:08;;;;;;;8.40;4.15;;;;;;;10.94;41.73;99704.19;4878956;29;20310;-95
2024/03/21 07:19:34;;;;;;;6.75;4.63;;;;;;;11.23;41.61;99744.19;4834998;29;20041;-92
2024/03/21 07:22:21;;;;;;;6.72;4.88;;;;;;;11.21;41.74;99735.56;4848455;29;20465;-91
2024/03/21 07:24:54;;;;;;;7.18;4.50;;;;;;;11.15;41.64;99721.25;4853399;29;20460;-94
2024/03/21 07:27:20;;;;;;;6.90;5.05;;;;;;;11.08;41.37;99713.41;4826073;29;20120;-93
2024/03/21 07:29:46;;;;;;;10.13;4.63;;;;;;;10.98;41.52;99713.34;4826756;29;20156;-93
2024/03/21 07:32:12;;;;;;;7.60;4.70;;;;;;;11.13;41.84;99726.06;4838805;29;20501;-92
2024/03/21 07:34:56;;;;;;;7.47;4.88;;;;;;;11.17;41.66;99691.34;4838398;29;20105;-96
2024/03/21 07:37:21;;;;;;;9.13;4.75;;;;;;;11.31;41.36;99735.59;4829400;29;20037;-92
2024/03/21 07:39:50;;;;;;;9.07;4.35;;;;;;;11.23;41.81;99715.34;4805540;29;20517;-92
2024/03/21 07:42:23;;;;;;;8.57;4.30;;;;;;;11.16;40.85;99685.13;4840742;29;20133;-92
2024/03/21 07:44:49;;;;;;;7.35;4.40;;;;;;;11.20;40.65;99686.19;4819886;29;20110;-93
2024/03/21 07:47:17;;;;;;;7.90;4.55;;;;;;;11.29;40.43;99686.53;4850691;29;20104;-93
2024/03/21 07:49:55;;;;;;;7.13;4.30;;;;;;;11.46;40.59;99703.28;4843141;29;20037;-92
2024/03/21 07:52:21;;;;;;;7.60;4.30;;;;;;;11.62;40.64;99711.38;4903065;29;20036;-92
2024/03/21 07:54:47;;;;;;;11.43;5.80;;;;;;;11.61;40.17;99720.56;4874414;29;20402;-92
2024/03/21 07:57:20;;;;;;;8.80;4.35;;;;;;;11.39;39.95;99673.03;4870907;29;20468;-92
2024/03/21 07:59:49;;;;;;;9.15;4.32;;;;;;;11.68;39.38;99710.31;4869313;29;20025;-91
2024/03/21 08:02:28;;;;;;;;;;;;;;;;;;;;;
2024/03/21 08:04:56;;;;;;;6.97;4.18;;;;;;;11.59;39.57;99691.16;4873832;29;20117;-93
2024/03/21 08:07:26;;;;;;;7.57;4.70;;;;;;;11.64;39.61;99671.47;4855961;29;20068;-90
2024/03/21 08:09:54;;;;;;;13.90;6.78;;;;;;;11.72;39.10;99676.34;4854364;29;20036;-94
2024/03/21 08:12:46;;;;;;;11.13;4.30;;;;;;;11.95;39.02;99676.91;4868947;29;20025;-93
2024/03/21 08:15:45;;;;;;;6.47;4.28;;;;;;;12.15;38.72;99684.22;4857833;29;20085;-92
2024/03/21 08:18:29;;;;;;;;;;;;;;;;;;;;;
2024/03/21 08:20:57;;;;;;;23.88;13.93;;;;;;;12.18;38.90;99656.66;4883322;29;20130;-93
2024/03/21 08:24:11;;;;;;;25.17;11.30;;;;;;;12.36;38.38;99672.31;4852541;29;20044;-95
2024/03/21 08:26:37;;;;;;;6.55;4.38;;;;;;;12.33;38.56;99665.56;4876822;29;20045;-93
2024/03/21 08:29:23;;;;;;;8.52;4.43;;;;;;;12.38;38.61;99670.13;4851942;29;20105;-93
2024/03/21 08:32:48;;;;;;;7.78;4.60;;;;;;;12.59;38.15;99692.50;4859713;29;20116;-94
2024/03/21 08:36:06;;;;;;;6.63;4.32;;;;;;;12.47;38.07;99687.41;4866404;29;20092;-94
2024/03/21 08:45:28;;;;;;;5.35;3.85;;;;;;;12.30;38.16;99671.50;4833473;29;20053;-94
2024/03/21 08:47:54;;;;;;;7.68;4.65;;;;;;;12.27;38.19;99665.84;4815272;29;20103;-92
2024/03/21 08:50:20;;;;;;;19.70;8.00;;;;;;;12.33;37.78;99641.25;4846422;29;20037;-93
2024/03/21 08:52:45;;;;;;;7.30;4.45;;;;;;;12.49;37.94;99650.16;4853176;29;20064;-94
2024/03/21 08:55:39;;;;;;;7.82;4.30;;;;;;;12.80;37.36;99668.13;4838748;29;20063;-94
2024/03/21 08:58:07;;;;;;;9.13;4.95;;;;;;;12.78;37.86;99635.19;4852909;29;20455;-92
2024/03/21 09:00:56;;;;;;;11.38;4.35;;;;;;;13.08;37.66;99658.56;4839201;29;20033;-91
2024/03/21 09:06:47;;;;;;;8.23;4.50;;;;;;;13.24;36.44;99634.94;4876996;29;20124;-92
2024/03/21 09:09:16;;;;;;;5.93;4.07;;;;;;;13.60;35.92;99649.09;4855625;29;20106;-92
2024/03/21 09:11:44;;;;;;;6.45;3.63;;;;;;;13.62;35.26;99635.28;4837553;29;20060;-94
2024/03/21 09:14:10;;;;;;;6.38;4.20;;;;;;;13.59;35.14;99633.13;4866856;29;20397;-92
2024/03/21 09:16:36;;;;;;;28.15;5.35;;;;;;;13.63;35.21;99640.38;4868381;29;20037;-91
2024/03/21 09:19:17;;;;;;;12.07;4.15;;;;;;;13.59;35.19;99650.16;4886480;29;20033;-90
2024/03/21 09:21:56;;;;;;;9.50;3.90;;;;;;;13.65;35.60;99643.63;4889790;29;20056;-94
2024/03/21 09:24:28;;;;;;;7.38;3.97;;;;;;;13.77;35.51;99632.44;4867020;29;20029;-90
2024/03/21 09:26:56;;;;;;;6.80;4.30;;;;;;;13.95;35.46;99641.78;4882183;29;20043;-91
2024/03/21 09:29:33;;;;;;;7.25;4.28;;;;;;;13.75;35.62;99630.03;4853837;29;20111;-91
2024/03/21 09:31:59;;;;;;;9.60;4.95;;;;;;;13.64;35.74;99631.19;4857977;29;20017;-92
2024/03/21 09:37:43;;;;;;;5.55;4.30;;;;;;;13.57;36.08;99621.78;4880175;29;20066;-91
2024/03/21 09:40:32;;;;;;;12.00;4.72;;;;;;;13.63;36.14;99632.28;4885015;29;20024;-95
2024/03/21 09:42:57;;;;;;;7.93;4.80;;;;;;;13.77;36.25;99626.25;4879035;29;20037;-89
2024/03/21 09:45:26;;;;;;;10.38;4.45;;;;;;;13.63;35.99;99624.16;4883624;29;20052;-95
2024/03/21 09:48:46;;;;;;;7.50;3.83;;;;;;;13.48;35.78;99613.47;4839645;29;20112;-94
2024/03/21 09:51:35;;;;;;;6.45;3.75;;;;;;;13.97;35.15;99639.59;4867559;29;20084;-94
2024/03/21 09:54:18;;;;;;;13.13;4.47;;;;;;;13.99;35.45;99634.72;4868612;29;20045;-95
2024/03/21 09:57:08;;;;;;;6.43;4.03;;;;;;;14.01;35.29;99616.28;4870714;29;20033;-95
2024/03/21 10:00:07;;;;;;;;;;;;;;;;;;;;;
2024/03/21 10:06:05;;;;;;;6.35;3.95;;;;;;;14.07;34.72;99608.91;4741110;30;20118;-96
2024/03/21 10:09:03;;;;;;;4.72;3.47;;;;;;;14.01;34.83;99610.88;4744924;30;20247;-95
2024/03/21 10:18:48;;;;;;;6.13;3.50;;;;;;;13.70;34.07;99602.22;4725319;30;20070;-93
2024/03/21 10:21:15;;;;;;;6.20;4.18;;;;;;;13.91;34.34;99617.19;4723612;30;20041;-92
2024/03/21 10:23:46;;;;;;;10.07;5.38;;;;;;;13.78;34.47;99611.59;4782171;29;20038;-93
2024/03/21 10:26:15;;;;;;;5.38;4.00;;;;;;;13.67;34.48;99600.06;4812976;29;20050;-94
2024/03/21 10:28:41;;;;;;;7.32;4.10;;;;;;;13.93;34.57;99600.66;4809651;29;20046;-92
2024/03/21 10:31:20;;;;;;;6.10;4.38;;;;;;;14.00;34.08;99598.41;4775779;30;20047;-92
2024/03/21 10:34:10;;;;;;;6.35;3.88;;;;;;;14.06;34.20;99582.94;4823450;29;20042;-96
2024/03/21 10:36:44;;;;;;;5.57;3.72;;;;;;;14.05;34.25;99567.75;4828872;29;20361;-93
2024/03/21 10:39:27;;;;;;;8.05;4.53;;;;;;;14.22;34.13;99580.88;4842374;29;20049;-93
2024/03/21 10:41:58;;;;;;;7.82;4.55;;;;;;;14.33;34.30;99593.19;4852761;29;20036;-93
2024/03/21 10:44:55;;;;;;;;;;;;;;;;;;;;;
2024/03/21 11:06:48;;;;;;;6.63;4.30;;;;;;;14.71;34.06;99569.75;4913399;29;20056;-95
2024/03/21 11:16:05;;;;;;;7.25;4.07;;;;;;;15.03;33.12;99541.13;4919409;29;20027;-96
2024/03/21 11:18:47;;;;;;;;;;;;;;;;;;;;;
2024/03/21 11:21:27;;;;;;;7.40;3.85;;;;;;;15.05;33.48;99538.91;4889737;29;20095;-94
2024/03/21 11:23:52;;;;;;;7.05;4.05;;;;;;;15.06;33.41;99532.38;4882420;29;20024;-92
2024/03/21 11:26:19;;;;;;;10.52;4.47;;;;;;;15.38;32.94;99525.41;4883532;29;20043;-93
2024/03/21 11:28:50;;;;;;;5.32;3.90;;;;;;;15.22;33.42;99529.44;4887509;29;20073;-95
2024/03/21 11:31:22;;;;;;;6.55;4.13;;;;;;;15.42;32.38;99533.72;4887278;29;20031;-93
2024/03/21 11:34:13;;;;;;;6.68;3.97;;;;;;;15.40;32.17;99523.19;4912319;29;20522;-95
2024/03/21 11:36:47;;;;;;;5.53;4.05;;;;;;;15.42;31.75;99526.41;4898539;29;20132;-96
2024/03/21 11:39:18;;;;;;;6.70;3.67;;;;;;;15.44;31.83;99535.06;4907196;29;20039;-94
2024/03/21 11:41:43;;;;;;;7.97;4.30;;;;;;;15.05;33.29;99521.84;4868451;29;20409;-92
2024/03/21 11:44:21;;;;;;;7.57;4.63;;;;;;;15.07;33.32;99539.44;4883957;29;20067;-94
2024/03/21 11:46:47;;;;;;;7.78;4.75;;;;;;;14.97;33.08;99523.31;4873670;29;20050;-94
2024/03/21 11:50:19;;;;;;;13.32;4.65;;;;;;;14.76;33.55;99533.63;4865398;29;20056;-96
2024/03/21 11:53:04;;;;;;;;;;;;;;;;;;;;;
2024/03/21 11:59:03;;;;;;;5.95;3.83;;;;;;;14.79;34.41;99511.34;4866568;29;20118;-96
2024/03/21 12:01:42;;;;;;;7.82;4.30;;;;;;;14.69;33.72;99500.66;4827445;29;20050;-96
2024/03/21 12:04:22;;;;;;;;;;;;;;;;;;;;;
2024/03/21 12:06:53;;;;;;;8.23;4.35;;;;;;;14.11;34.63;99497.03;4864970;29;20120;-92
2024/03/21 12:13:00;;;;;;;7.63;5.38;;;;;;;14.37;36.60;99504.06;4863952;29;20040;-93
2024/03/21 12:15:44;;;;;;;10.85;6.35;;;;;;;14.13;38.26;99515.69;4805245;29;20126;-95
2024/03/21 12:18:09;;;;;;;9.88;6.22;;;;;;;14.19;37.86;99505.63;4852069;29;20060;-93
2024/03/21 12:21:58;;;;;;;;;;;;;;;;;;;;;
2024/03/21 12:31:38;;;;;;;11.63;7.88;;;;;;;13.95;39.19;99501.81;4840015;29;20073;-94
2024/03/21 12:34:04;;;;;;;10.83;6.90;;;;;;;13.75;39.69;99504.72;4837044;29;20102;-96
2024/03/21 12:36:35;;;;;;;10.20;6.38;;;;;;;13.52;39.42;99501.69;4832804;29;20306;-95
2024/03/21 12:39:17;;;;;;;10.07;6.45;;;;;;;13.49;39.48;99475.22;4868050;29;20037;-95
2024/03/21 12:42:34;;;;;;;11.85;7.35;;;;;;;13.39;40.01;99482.63;4852467;29;20034;-94
2024/03/21 12:45:16;;;;;;;9.95;6.50;;;;;;;13.41;39.92;99491.28;4883468;29;20037;-92
2024/03/21 12:47:43;;;;;;;11.68;6.18;;;;;;;13.49;39.76;99491.47;4868253;29;20025;-94
2024/03/21 12:50:11;;;;;;;10.10;6.07;;;;;;;13.49;39.35;99493.38;4868380;29;20026;-95
2024/03/21 12:52:49;;;;;;;11.70;6.82;;;;;;;13.49;39.69;99477.13;4866914;29;20037;-96
2024/03/21 12:55:17;;;;;;;12.40;6.63;;;;;;;13.51;39.93;99470.34;4840477;29;20044;-96
2024/03/21 12:58:01;;;;;;;11.68;6.85;;;;;;;13.64;39.23;99476.97;4856290;29;20037;-94
2024/03/21 13:00:33;;;;;;;9.30;6.68;;;;;;;13.58;39.88;99480.81;4850938;29;20025;-96
2024/03/21 13:03:01;;;;;;;13.70;7.07;;;;;;;13.59;39.51;99495.16;4848231;29;20082;-96
2024/03/21 13:05:27;;;;;;;10.07;7.20;;;;;;;13.40;39.48;99476.91;4856754;29;20045;-94
2024/03/21 13:08:01;;;;;;;11.40;6.40;;;;;;;13.48;39.20;99465.50;4851932;29;20035;-94
2024/03/21 13:10:26;;;;;;;11.48;6.05;;;;;;;13.58;39.72;99474.59;4864781;29;20125;-91